Time;durP1;ratioP1;P1;durP2;ratioP2;P2;SDS_P1;SDS_P2;PMS_P1;PMS_P2;Temp;Humidity;BMP_temperature;BMP_pressure;BME280_temperature;BME280_humidity;BME280_pressure;Samples;Min_cycle;Max_cycle;Signal;HPM_P1;HPM_P2
2021/12/27 00:02:10;;;;;;;3.65;2.75;;;;;;;;;;4974254;28;20069;-74
2021/12/27 00:04:35;;;;;;;2.53;2.33;;;;;;;;;;4975395;28;20122;-74
2021/12/27 00:07:00;;;;;;;2.30;2.10;;;;;;;;;;4989555;28;20076;-74
2021/12/27 00:09:26;;;;;;;2.58;2.38;;;;;;;;;;4974061;28;20066;-74
2021/12/27 00:11:51;;;;;;;2.55;2.35;;;;;;;;;;4974358;28;20078;-74
2021/12/27 00:14:16;;;;;;;2.85;2.53;;;;;;;;;;4975996;28;20693;-74
2021/12/27 00:16:42;;;;;;;2.75;2.55;;;;;;;;;;4973825;28;20485;-73
2021/12/27 00:19:08;;;;;;;2.90;2.60;;;;;;;;;;4978094;28;20092;-74
2021/12/27 00:21:34;;;;;;;3.25;2.75;;;;;;;;;;4973982;28;20524;-74
2021/12/27 00:23:59;;;;;;;5.03;3.47;;;;;;;;;;4975407;28;20066;-74
2021/12/27 00:26:24;;;;;;;4.53;3.60;;;;;;;;;;4974043;28;20038;-74
2021/12/27 00:28:51;;;;;;;4.93;3.70;;;;;;;;;;4974414;28;20038;-74
2021/12/27 00:31:16;;;;;;;6.63;4.00;;;;;;;;;;4973915;28;20082;-74
2021/12/27 00:33:41;;;;;;;5.28;4.05;;;;;;;;;;4958354;28;20070;-74
2021/12/27 00:36:07;;;;;;;4.18;3.65;;;;;;;;;;4974952;28;20061;-74
2021/12/27 00:38:32;;;;;;;4.03;3.63;;;;;;;;;;4967416;28;20027;-74
2021/12/27 00:40:58;;;;;;;4.20;3.80;;;;;;;;;;4991888;28;20046;-74
2021/12/27 00:43:23;;;;;;;4.10;3.80;;;;;;;;;;4978035;28;20057;-74
2021/12/27 00:45:48;;;;;;;4.93;3.95;;;;;;;;;;4976550;28;20070;-74
2021/12/27 00:48:15;;;;;;;4.47;4.03;;;;;;;;;;4978602;28;20060;-74
2021/12/27 00:50:41;;;;;;;4.38;3.45;;;;;;;;;;4976791;28;20442;-74
2021/12/27 00:53:06;;;;;;;4.85;3.72;;;;;;;;;;4977200;28;20046;-74
2021/12/27 00:55:31;;;;;;;2.90;2.70;;;;;;;;;;4977482;28;20379;-74
2021/12/27 00:57:57;;;;;;;3.00;2.80;;;;;;;;;;4976272;28;20138;-74
2021/12/27 01:00:23;;;;;;;4.05;3.42;;;;;;;;;;4975400;28;20125;-73
2021/12/27 01:02:48;;;;;;;2.90;2.70;;;;;;;;;;4988445;28;20496;-74
2021/12/27 01:05:14;;;;;;;2.70;2.50;;;;;;;;;;4977037;28;20026;-74
2021/12/27 01:07:40;;;;;;;3.67;2.53;;;;;;;;;;4977365;28;20051;-73
2021/12/27 01:10:38;;;;;;;2.70;2.50;;;;;;;;;;4976063;28;20030;-73
2021/12/27 01:16:02;;;;;;;3.20;2.60;;;;;;;;;;4988098;28;20068;-74
2021/12/27 01:18:27;;;;;;;2.97;2.70;;;;;;;;;;4976300;28;20046;-74
2021/12/27 01:20:53;;;;;;;2.83;2.40;;;;;;;;;;4976570;28;20026;-74
2021/12/27 01:23:18;;;;;;;2.78;2.45;;;;;;;;;;4976139;28;20053;-74
2021/12/27 01:25:43;;;;;;;3.35;2.50;;;;;;;;;;4977174;28;20156;-74
2021/12/27 01:28:09;;;;;;;2.58;2.38;;;;;;;;;;4977351;28;20106;-73
2021/12/27 01:30:38;;;;;;;2.83;2.47;;;;;;;;;;4992340;28;20039;-74
2021/12/27 01:33:04;;;;;;;2.83;2.42;;;;;;;;;;4977990;28;20023;-74
2021/12/27 01:35:29;;;;;;;3.20;2.90;;;;;;;;;;4975661;28;20109;-73
2021/12/27 01:37:55;;;;;;;2.92;2.63;;;;;;;;;;4976085;28;20058;-73
2021/12/27 01:40:23;;;;;;;3.25;2.95;;;;;;;;;;4991965;28;20014;-74
2021/12/27 01:43:12;;;;;;;2.85;2.55;;;;;;;;;;4977192;28;20058;-74
2021/12/27 01:45:39;;;;;;;2.80;2.50;;;;;;;;;;4975197;28;20031;-74
2021/12/27 01:48:06;;;;;;;2.97;2.67;;;;;;;;;;4992000;28;20448;-74
2021/12/27 01:50:32;;;;;;;5.03;3.00;;;;;;;;;;4976897;28;20063;-73
2021/12/27 01:52:57;;;;;;;3.00;2.72;;;;;;;;;;4977807;28;20050;-74
2021/12/27 01:55:22;;;;;;;3.28;2.97;;;;;;;;;;4976939;28;20045;-73
2021/12/27 01:57:48;;;;;;;3.58;2.97;;;;;;;;;;4976453;28;20120;-74
2021/12/27 02:00:14;;;;;;;3.35;3.05;;;;;;;;;;4975444;28;20030;-73
2021/12/27 02:02:40;;;;;;;3.72;3.30;;;;;;;;;;4976974;28;20031;-73
2021/12/27 02:05:05;;;;;;;2.90;2.58;;;;;;;;;;4990497;28;20028;-73
2021/12/27 02:07:31;;;;;;;4.03;2.75;;;;;;;;;;4974597;28;20027;-73
2021/12/27 02:10:02;;;;;;;3.53;3.00;;;;;;;;;;4975348;28;20053;-74
2021/12/27 02:12:31;;;;;;;3.03;2.72;;;;;;;;;;4975001;28;20026;-74
2021/12/27 02:14:56;;;;;;;2.80;2.60;;;;;;;;;;4974977;28;20022;-74
2021/12/27 02:17:21;;;;;;;3.63;2.90;;;;;;;;;;4974109;28;20109;-73
2021/12/27 02:19:47;;;;;;;2.08;1.83;;;;;;;;;;4974744;28;20045;-74
2021/12/27 02:22:13;;;;;;;1.80;1.70;;;;;;;;;;4990481;28;20030;-74
2021/12/27 02:24:40;;;;;;;1.70;1.60;;;;;;;;;;4989622;28;20042;-73
2021/12/27 02:27:05;;;;;;;1.83;1.73;;;;;;;;;;4976166;28;20018;-74
2021/12/27 02:29:31;;;;;;;1.67;1.58;;;;;;;;;;4991417;28;20093;-74
2021/12/27 02:31:56;;;;;;;1.70;1.60;;;;;;;;;;4990832;28;20046;-73
2021/12/27 02:34:21;;;;;;;1.98;1.58;;;;;;;;;;4976740;28;20039;-74
2021/12/27 02:36:48;;;;;;;1.60;1.50;;;;;;;;;;4973645;28;20069;-73
2021/12/27 02:39:13;;;;;;;1.83;1.30;;;;;;;;;;4973505;28;20054;-74
2021/12/27 02:41:39;;;;;;;1.55;1.40;;;;;;;;;;4977208;28;20467;-74
2021/12/27 02:44:04;;;;;;;1.60;1.50;;;;;;;;;;4976597;28;20462;-74
2021/12/27 02:46:30;;;;;;;1.40;1.30;;;;;;;;;;4974426;28;20548;-74
2021/12/27 02:48:55;;;;;;;1.40;1.30;;;;;;;;;;4991265;28;20073;-74
2021/12/27 02:51:20;;;;;;;2.13;1.73;;;;;;;;;;4976560;28;20137;-74
2021/12/27 02:53:47;;;;;;;1.80;1.70;;;;;;;;;;4976251;28;20054;-73
2021/12/27 02:56:12;;;;;;;1.60;1.50;;;;;;;;;;4971791;28;20023;-73
2021/12/27 02:58:37;;;;;;;2.13;1.70;;;;;;;;;;4974972;28;20541;-74
2021/12/27 03:01:06;;;;;;;1.60;1.50;;;;;;;;;;4975861;28;20122;-74
2021/12/27 03:03:32;;;;;;;1.60;1.50;;;;;;;;;;4977368;28;20045;-74
2021/12/27 03:05:57;;;;;;;2.40;1.50;;;;;;;;;;4989315;28;20034;-74
2021/12/27 03:08:23;;;;;;;1.48;1.38;;;;;;;;;;4974545;28;20049;-74
2021/12/27 03:10:51;;;;;;;1.67;1.58;;;;;;;;;;4975082;28;20571;-73
2021/12/27 03:13:23;;;;;;;2.35;1.70;;;;;;;;;;4975722;28;20026;-73
2021/12/27 03:16:09;;;;;;;2.17;1.80;;;;;;;;;;4973619;28;20034;-73
2021/12/27 03:18:35;;;;;;;2.00;1.80;;;;;;;;;;4974272;28;20022;-73
2021/12/27 03:21:00;;;;;;;2.58;1.88;;;;;;;;;;4974312;28;20042;-74
2021/12/27 03:23:26;;;;;;;1.73;1.63;;;;;;;;;;4990148;28;20113;-74
2021/12/27 03:25:52;;;;;;;2.38;2.17;;;;;;;;;;4975617;28;20042;-74
2021/12/27 03:28:18;;;;;;;3.47;2.50;;;;;;;;;;4977649;28;20023;-74
2021/12/27 03:30:43;;;;;;;4.13;2.25;;;;;;;;;;4968173;28;20067;-74
2021/12/27 03:33:09;;;;;;;2.72;2.42;;;;;;;;;;4973019;28;20042;-74
2021/12/27 03:35:36;;;;;;;3.17;2.47;;;;;;;;;;4990949;28;20030;-74
2021/12/27 03:38:03;;;;;;;2.78;2.58;;;;;;;;;;4974105;28;20022;-74
2021/12/27 03:40:28;;;;;;;3.33;2.80;;;;;;;;;;4977024;28;20030;-74
2021/12/27 03:42:54;;;;;;;2.78;2.47;;;;;;;;;;4978440;28;20068;-74
2021/12/27 03:45:22;;;;;;;3.33;2.90;;;;;;;;;;4972050;28;20033;-74
2021/12/27 03:47:47;;;;;;;2.60;2.40;;;;;;;;;;4945513;28;20432;-74
2021/12/27 03:50:12;;;;;;;2.60;2.40;;;;;;;;;;4973231;28;20053;-74
2021/12/27 03:52:38;;;;;;;2.95;2.10;;;;;;;;;;4972855;28;20058;-74
2021/12/27 03:55:05;;;;;;;2.95;2.03;;;;;;;;;;4974701;28;20443;-74
2021/12/27 03:57:32;;;;;;;2.20;2.00;;;;;;;;;;4989141;28;20481;-74
2021/12/27 04:00:45;;;;;;;2.70;2.00;;;;;;;;;;4971377;28;20036;-74
2021/12/27 04:02:49;;;;;;;1.92;1.83;;;;;;;;;;4975581;28;20066;-74
2021/12/27 04:05:15;;;;;;;2.10;1.90;;;;;;;;;;4974244;28;20035;-74
2021/12/27 04:07:43;;;;;;;2.20;2.00;;;;;;;;;;4978150;28;20404;-74
2021/12/27 04:10:09;;;;;;;1.95;1.85;;;;;;;;;;4971953;28;20038;-74
2021/12/27 04:12:34;;;;;;;2.30;2.10;;;;;;;;;;4978249;28;20015;-74
2021/12/27 04:15:00;;;;;;;2.33;1.83;;;;;;;;;;4966705;28;20536;-74
2021/12/27 04:17:25;;;;;;;2.35;2.17;;;;;;;;;;4964428;28;20034;-74
2021/12/27 04:19:50;;;;;;;1.90;1.80;;;;;;;;;;4969187;28;20129;-74
2021/12/27 04:22:16;;;;;;;4.13;2.40;;;;;;;;;;4971753;28;20024;-74
2021/12/27 04:24:41;;;;;;;2.38;2.17;;;;;;;;;;4976319;28;20042;-74
2021/12/27 04:27:06;;;;;;;2.25;1.98;;;;;;;;;;4972244;28;20034;-74
2021/12/27 04:29:32;;;;;;;4.93;2.10;;;;;;;;;;4971384;28;20046;-73
2021/12/27 04:31:57;;;;;;;2.47;2.10;;;;;;;;;;4977510;28;20031;-74
2021/12/27 04:34:22;;;;;;;2.03;1.92;;;;;;;;;;4996272;28;20027;-74
2021/12/27 04:36:47;;;;;;;2.92;2.15;;;;;;;;;;4974636;28;20041;-74
2021/12/27 04:39:13;;;;;;;4.07;2.05;;;;;;;;;;4974975;28;20018;-74
2021/12/27 04:41:38;;;;;;;3.78;2.20;;;;;;;;;;4974231;28;20034;-74
2021/12/27 04:44:03;;;;;;;2.53;2.30;;;;;;;;;;4975723;28;20023;-74
2021/12/27 04:46:29;;;;;;;2.13;2.00;;;;;;;;;;4972070;28;20042;-74
2021/12/27 04:48:55;;;;;;;2.30;2.10;;;;;;;;;;4969405;28;20034;-74
2021/12/27 04:51:20;;;;;;;2.42;2.22;;;;;;;;;;4971043;28;20479;-73
2021/12/27 04:53:47;;;;;;;3.05;2.35;;;;;;;;;;4973357;28;20045;-74
2021/12/27 04:56:13;;;;;;;2.17;2.00;;;;;;;;;;4973110;28;20030;-74
2021/12/27 04:58:38;;;;;;;3.38;2.10;;;;;;;;;;4989418;28;20023;-73
2021/12/27 05:01:03;;;;;;;1.80;1.70;;;;;;;;;;4988177;28;20254;-74
2021/12/27 05:03:29;;;;;;;1.80;1.70;;;;;;;;;;4974527;28;20445;-74
2021/12/27 05:05:54;;;;;;;1.67;1.58;;;;;;;;;;4973544;28;20039;-74
2021/12/27 05:08:19;;;;;;;1.63;1.52;;;;;;;;;;4974911;28;20045;-74
2021/12/27 05:10:45;;;;;;;2.88;1.60;;;;;;;;;;4973768;28;20110;-73
2021/12/27 05:13:10;;;;;;;1.40;1.33;;;;;;;;;;4989858;28;20105;-73
2021/12/27 05:15:35;;;;;;;1.60;1.50;;;;;;;;;;4974660;28;20027;-74
2021/12/27 05:18:01;;;;;;;1.60;1.50;;;;;;;;;;4990104;28;20106;-74
2021/12/27 05:20:27;;;;;;;1.73;1.45;;;;;;;;;;4973991;28;20121;-74
2021/12/27 05:22:52;;;;;;;1.42;1.33;;;;;;;;;;4991859;28;20057;-74
2021/12/27 05:25:17;;;;;;;1.50;1.40;;;;;;;;;;4976945;28;20457;-74
2021/12/27 05:27:43;;;;;;;1.77;1.50;;;;;;;;;;4992288;28;20464;-72
2021/12/27 05:30:09;;;;;;;2.22;1.40;;;;;;;;;;4991106;28;20668;-73
2021/12/27 05:32:35;;;;;;;1.70;1.45;;;;;;;;;;4960353;28;20026;-73
2021/12/27 05:35:02;;;;;;;1.60;1.50;;;;;;;;;;4977052;28;20517;-73
2021/12/27 05:37:27;;;;;;;1.60;1.50;;;;;;;;;;4976673;28;20105;-74
2021/12/27 05:39:52;;;;;;;1.70;1.52;;;;;;;;;;4977964;28;20615;-73
2021/12/27 05:42:18;;;;;;;1.70;1.60;;;;;;;;;;4992495;28;20757;-73
2021/12/27 05:44:43;;;;;;;1.65;1.55;;;;;;;;;;4977527;28;20158;-74
2021/12/27 05:47:08;;;;;;;1.77;1.48;;;;;;;;;;4977734;28;20109;-74
2021/12/27 05:49:34;;;;;;;1.50;1.40;;;;;;;;;;4977056;28;20124;-74
2021/12/27 05:51:59;;;;;;;1.60;1.50;;;;;;;;;;4977345;28;20045;-74
2021/12/27 05:54:25;;;;;;;1.92;1.70;;;;;;;;;;4976733;28;20047;-74
2021/12/27 05:56:51;;;;;;;1.65;1.55;;;;;;;;;;4976548;28;20030;-73
2021/12/27 05:59:16;;;;;;;1.30;1.30;;;;;;;;;;4975764;28;20094;-73
2021/12/27 06:01:42;;;;;;;1.77;1.67;;;;;;;;;;4990136;28;20039;-74
2021/12/27 06:04:07;;;;;;;2.58;2.33;;;;;;;;;;4977805;28;20023;-73
2021/12/27 06:06:33;;;;;;;2.35;2.15;;;;;;;;;;4974813;28;20026;-73
2021/12/27 06:08:58;;;;;;;1.80;1.70;;;;;;;;;;4977854;28;20042;-73
2021/12/27 06:11:23;;;;;;;2.50;2.20;;;;;;;;;;4977001;28;20038;-74
2021/12/27 06:13:48;;;;;;;3.17;2.38;;;;;;;;;;4975373;28;20026;-74
2021/12/27 06:16:14;;;;;;;2.20;2.00;;;;;;;;;;4976124;28;20034;-74
2021/12/27 06:18:39;;;;;;;2.38;2.13;;;;;;;;;;4975650;28;20461;-73
2021/12/27 06:21:05;;;;;;;2.10;2.00;;;;;;;;;;4976870;28;20036;-73
2021/12/27 06:23:33;;;;;;;3.47;2.53;;;;;;;;;;4990738;28;20029;-73
2021/12/27 06:25:58;;;;;;;2.70;2.30;;;;;;;;;;4975786;28;20089;-74
2021/12/27 06:28:24;;;;;;;2.92;2.17;;;;;;;;;;4976573;28;20034;-74
2021/12/27 06:30:49;;;;;;;1.80;1.70;;;;;;;;;;4972432;28;20529;-73
2021/12/27 06:33:15;;;;;;;3.67;2.10;;;;;;;;;;4972191;28;20027;-74
2021/12/27 06:35:40;;;;;;;2.33;2.13;;;;;;;;;;4974744;28;20030;-74
2021/12/27 06:38:05;;;;;;;2.10;1.90;;;;;;;;;;4974533;28;20040;-73
2021/12/27 06:40:30;;;;;;;2.00;1.80;;;;;;;;;;4974300;28;20030;-74
2021/12/27 06:42:56;;;;;;;1.60;1.50;;;;;;;;;;4988807;28;20122;-72
2021/12/27 06:45:22;;;;;;;1.52;1.42;;;;;;;;;;4974529;28;20117;-73
2021/12/27 06:47:47;;;;;;;1.60;1.50;;;;;;;;;;4975853;28;20034;-74
2021/12/27 06:50:13;;;;;;;3.90;1.70;;;;;;;;;;4976159;28;20042;-73
2021/12/27 06:52:38;;;;;;;3.53;1.80;;;;;;;;;;4975228;28;20034;-74
2021/12/27 06:55:04;;;;;;;1.70;1.58;;;;;;;;;;4975464;28;20069;-73
2021/12/27 06:57:30;;;;;;;1.50;1.40;;;;;;;;;;4974792;28;20500;-75
2021/12/27 06:59:56;;;;;;;1.42;1.33;;;;;;;;;;4975166;28;20026;-75
2021/12/27 07:02:22;;;;;;;2.17;1.73;;;;;;;;;;4973931;28;20104;-74
2021/12/27 07:04:47;;;;;;;2.10;1.80;;;;;;;;;;4975942;28;20857;-73
2021/12/27 07:07:12;;;;;;;2.28;2.08;;;;;;;;;;4975506;28;20034;-75
2021/12/27 07:09:38;;;;;;;3.42;2.90;;;;;;;;;;4975648;28;20470;-74
2021/12/27 07:12:04;;;;;;;4.80;3.78;;;;;;;;;;4976465;28;20038;-75
2021/12/27 07:14:29;;;;;;;4.85;4.07;;;;;;;;;;4976614;28;20110;-75
2021/12/27 07:16:54;;;;;;;4.25;3.13;;;;;;;;;;4975197;28;20121;-75
2021/12/27 07:19:20;;;;;;;2.72;2.53;;;;;;;;;;4990018;28;20449;-74
2021/12/27 07:21:45;;;;;;;4.68;2.17;;;;;;;;;;4975873;28;20487;-74
2021/12/27 07:24:11;;;;;;;1.75;1.65;;;;;;;;;;4975796;28;20026;-73
2021/12/27 07:26:36;;;;;;;2.38;2.00;;;;;;;;;;4972699;28;20293;-75
2021/12/27 07:29:01;;;;;;;2.10;1.92;;;;;;;;;;4973706;28;20588;-74
2021/12/27 07:31:27;;;;;;;2.15;1.98;;;;;;;;;;4973299;28;20034;-74
2021/12/27 07:33:53;;;;;;;2.78;1.75;;;;;;;;;;4972240;28;20105;-74
2021/12/27 07:36:19;;;;;;;2.75;1.77;;;;;;;;;;4973909;28;20030;-75
2021/12/27 07:38:44;;;;;;;2.42;2.10;;;;;;;;;;4975178;28;20081;-74
2021/12/27 07:41:09;;;;;;;2.63;2.17;;;;;;;;;;4974881;28;20045;-74
2021/12/27 07:43:35;;;;;;;2.22;2.03;;;;;;;;;;4988532;28;20066;-74
2021/12/27 07:46:00;;;;;;;4.15;2.10;;;;;;;;;;4986305;28;20501;-74
2021/12/27 07:48:26;;;;;;;2.30;2.10;;;;;;;;;;4974837;28;20173;-75
2021/12/27 07:50:51;;;;;;;2.72;2.38;;;;;;;;;;4989753;28;20071;-74
2021/12/27 07:53:16;;;;;;;1.98;1.88;;;;;;;;;;4973929;28;20058;-74
2021/12/27 07:55:42;;;;;;;1.70;1.60;;;;;;;;;;4974908;28;20601;-74
2021/12/27 07:58:07;;;;;;;1.70;1.60;;;;;;;;;;4971726;28;20488;-74
2021/12/27 08:00:32;;;;;;;1.60;1.50;;;;;;;;;;4972345;28;20076;-74
2021/12/27 08:02:57;;;;;;;1.70;1.60;;;;;;;;;;4971441;28;20366;-74
2021/12/27 08:05:23;;;;;;;1.58;1.50;;;;;;;;;;4970975;28;20045;-74
2021/12/27 08:07:48;;;;;;;1.77;1.67;;;;;;;;;;4973466;28;20027;-74
2021/12/27 08:10:14;;;;;;;1.80;1.70;;;;;;;;;;4970865;28;20035;-74
2021/12/27 08:12:39;;;;;;;1.90;1.80;;;;;;;;;;4970435;28;20054;-74
2021/12/27 08:15:06;;;;;;;1.80;1.70;;;;;;;;;;4969849;28;20035;-74
2021/12/27 08:17:31;;;;;;;2.10;1.92;;;;;;;;;;4985139;28;20026;-74
2021/12/27 08:19:58;;;;;;;1.80;1.70;;;;;;;;;;4973644;28;20080;-74
2021/12/27 08:22:24;;;;;;;2.03;1.88;;;;;;;;;;4970395;28;20114;-74
2021/12/27 08:24:49;;;;;;;3.30;1.80;;;;;;;;;;4971791;28;20040;-74
2021/12/27 08:27:15;;;;;;;1.80;1.70;;;;;;;;;;4970471;28;20026;-74
2021/12/27 08:29:40;;;;;;;1.83;1.73;;;;;;;;;;4972854;28;20426;-74
2021/12/27 08:32:06;;;;;;;1.63;1.52;;;;;;;;;;4972636;28;20092;-74
2021/12/27 08:34:32;;;;;;;1.65;1.55;;;;;;;;;;4973022;28;20018;-74
2021/12/27 08:36:57;;;;;;;1.65;1.55;;;;;;;;;;4971702;28;20451;-75
2021/12/27 08:39:23;;;;;;;1.63;1.52;;;;;;;;;;4974067;28;20095;-74
2021/12/27 08:41:48;;;;;;;1.50;1.40;;;;;;;;;;4971723;28;20118;-74
2021/12/27 08:44:13;;;;;;;1.70;1.60;;;;;;;;;;4972616;28;20058;-75
2021/12/27 08:46:40;;;;;;;1.67;1.58;;;;;;;;;;4972093;28;20465;-74
2021/12/27 08:49:05;;;;;;;1.55;1.45;;;;;;;;;;4971968;28;20034;-74
2021/12/27 08:51:31;;;;;;;2.08;1.60;;;;;;;;;;4974668;28;20169;-74
2021/12/27 08:53:56;;;;;;;2.80;2.13;;;;;;;;;;4971948;28;20054;-74
2021/12/27 08:56:22;;;;;;;2.70;2.40;;;;;;;;;;4967773;28;20038;-74
2021/12/27 08:58:47;;;;;;;6.13;4.07;;;;;;;;;;4975910;28;20054;-74
2021/12/27 09:01:12;;;;;;;7.13;4.40;;;;;;;;;;4975198;28;20386;-74
2021/12/27 09:03:38;;;;;;;4.03;3.17;;;;;;;;;;4976729;28;20444;-74
2021/12/27 09:06:03;;;;;;;2.55;2.35;;;;;;;;;;4972953;28;20537;-74
2021/12/27 09:08:29;;;;;;;2.03;1.85;;;;;;;;;;4991153;28;20041;-74
2021/12/27 09:10:57;;;;;;;1.40;1.40;;;;;;;;;;4975120;28;20014;-74
2021/12/27 09:13:25;;;;;;;1.33;1.23;;;;;;;;;;4976424;28;20058;-74
2021/12/27 09:15:51;;;;;;;1.20;1.20;;;;;;;;;;4988958;28;20027;-74
2021/12/27 09:18:16;;;;;;;1.35;1.25;;;;;;;;;;4975679;28;20043;-73
2021/12/27 09:20:41;;;;;;;1.45;1.35;;;;;;;;;;4976055;28;20034;-74
2021/12/27 09:23:07;;;;;;;1.20;1.10;;;;;;;;;;4976694;28;20054;-74
2021/12/27 09:25:32;;;;;;;1.30;1.20;;;;;;;;;;4988914;28;20116;-74
2021/12/27 09:27:57;;;;;;;1.30;1.30;;;;;;;;;;4980484;28;20035;-75
2021/12/27 09:30:22;;;;;;;1.40;1.30;;;;;;;;;;4977499;28;20034;-75
2021/12/27 09:32:50;;;;;;;1.27;1.20;;;;;;;;;;4978707;28;20090;-75
2021/12/27 09:35:15;;;;;;;1.20;1.20;;;;;;;;;;4977631;28;20026;-75
2021/12/27 09:37:41;;;;;;;1.20;1.15;;;;;;;;;;4978437;28;20085;-75
2021/12/27 09:40:07;;;;;;;1.15;1.15;;;;;;;;;;4978622;28;20262;-74
2021/12/27 09:42:35;;;;;;;1.40;1.20;;;;;;;;;;4976565;28;20022;-75
2021/12/27 09:45:00;;;;;;;1.02;1.00;;;;;;;;;;4978027;28;20027;-75
2021/12/27 09:47:26;;;;;;;1.00;1.00;;;;;;;;;;4975751;28;20040;-75
2021/12/27 09:49:51;;;;;;;1.20;1.20;;;;;;;;;;4977656;28;20121;-74
2021/12/27 09:52:16;;;;;;;1.40;1.30;;;;;;;;;;4978623;28;20046;-74
2021/12/27 09:54:44;;;;;;;1.00;1.00;;;;;;;;;;4978403;28;20027;-74
2021/12/27 09:57:10;;;;;;;1.20;1.10;;;;;;;;;;4991666;28;20150;-75
2021/12/27 09:59:35;;;;;;;0.98;0.93;;;;;;;;;;4977686;28;20026;-74
2021/12/27 10:02:00;;;;;;;1.10;1.10;;;;;;;;;;4976754;28;20046;-75
2021/12/27 10:04:26;;;;;;;1.00;1.00;;;;;;;;;;4975572;28;20038;-75
2021/12/27 10:06:52;;;;;;;1.33;1.23;;;;;;;;;;4975200;28;20049;-75
2021/12/27 10:09:17;;;;;;;1.40;1.30;;;;;;;;;;4993136;28;20027;-75
2021/12/27 10:11:43;;;;;;;1.00;1.00;;;;;;;;;;4992541;28;20374;-74
2021/12/27 10:14:09;;;;;;;1.38;1.30;;;;;;;;;;4975118;28;20022;-74
2021/12/27 10:16:44;;;;;;;1.40;1.27;;;;;;;;;;4976727;28;20142;-74
2021/12/27 10:19:11;;;;;;;2.03;1.30;;;;;;;;;;4990607;28;20685;-74
2021/12/27 10:21:41;;;;;;;1.30;1.20;;;;;;;;;;4991731;28;20117;-74
2021/12/27 10:24:09;;;;;;;1.23;1.13;;;;;;;;;;4990682;28;20018;-74
2021/12/27 10:26:34;;;;;;;1.23;1.13;;;;;;;;;;4975590;28;20476;-74
2021/12/27 10:29:10;;;;;;;1.08;1.08;;;;;;;;;;4978287;28;20038;-74
2021/12/27 10:31:54;;;;;;;1.05;1.05;;;;;;;;;;4975635;28;20062;-74
2021/12/27 10:34:20;;;;;;;0.90;0.90;;;;;;;;;;4977301;28;20115;-74
2021/12/27 10:37:06;;;;;;;0.90;0.90;;;;;;;;;;4978323;28;20127;-73
2021/12/27 10:39:45;;;;;;;0.88;0.88;;;;;;;;;;4975930;28;20554;-73
2021/12/27 10:42:11;;;;;;;1.15;1.05;;;;;;;;;;4977155;28;20076;-73
2021/12/27 10:44:36;;;;;;;0.95;0.95;;;;;;;;;;4975682;28;20030;-73
2021/12/27 10:47:04;;;;;;;1.13;1.08;;;;;;;;;;4976766;28;20059;-73
2021/12/27 10:49:45;;;;;;;1.10;1.10;;;;;;;;;;4975261;28;20057;-73
2021/12/27 10:52:11;;;;;;;1.05;1.05;;;;;;;;;;4975014;28;20029;-74
2021/12/27 10:54:37;;;;;;;2.08;1.15;;;;;;;;;;4975413;28;20022;-73
2021/12/27 10:57:03;;;;;;;1.33;1.25;;;;;;;;;;4975236;28;20030;-73
2021/12/27 10:59:28;;;;;;;1.25;1.20;;;;;;;;;;4974940;28;20030;-73
2021/12/27 11:01:54;;;;;;;1.95;1.75;;;;;;;;;;4973773;28;20039;-73
2021/12/27 11:04:19;;;;;;;1.00;1.00;;;;;;;;;;4991811;28;20505;-73
2021/12/27 11:06:45;;;;;;;1.30;1.20;;;;;;;;;;4993197;28;20371;-73
2021/12/27 11:09:14;;;;;;;1.10;1.10;;;;;;;;;;4958343;28;20027;-73
2021/12/27 11:11:39;;;;;;;1.30;1.20;;;;;;;;;;4977247;28;20045;-73
2021/12/27 11:14:04;;;;;;;1.20;1.10;;;;;;;;;;4971536;28;20363;-73
2021/12/27 11:16:30;;;;;;;1.40;1.30;;;;;;;;;;4975244;28;20106;-73
2021/12/27 11:18:55;;;;;;;1.30;1.20;;;;;;;;;;4990847;28;20416;-73
2021/12/27 11:21:44;;;;;;;1.10;1.10;;;;;;;;;;4975747;28;20133;-73
2021/12/27 11:24:10;;;;;;;1.20;1.10;;;;;;;;;;4974757;28;20023;-74
2021/12/27 11:26:36;;;;;;;1.48;1.38;;;;;;;;;;4976107;28;20550;-73
2021/12/27 11:29:28;;;;;;;1.40;1.30;;;;;;;;;;4974987;28;20038;-74
2021/12/27 11:32:15;;;;;;;1.00;1.00;;;;;;;;;;4974575;28;20121;-74
2021/12/27 11:34:56;;;;;;;1.02;0.93;;;;;;;;;;4961462;28;20375;-73
2021/12/27 11:37:37;;;;;;;1.25;1.20;;;;;;;;;;4977119;28;20557;-74
2021/12/27 11:40:08;;;;;;;1.10;1.10;;;;;;;;;;4974966;28;20523;-74
2021/12/27 11:42:58;;;;;;;1.60;1.30;;;;;;;;;;4987729;28;20096;-73
2021/12/27 11:45:43;;;;;;;1.58;0.98;;;;;;;;;;4971249;28;20030;-73
2021/12/27 11:48:14;;;;;;;2.28;1.08;;;;;;;;;;4971646;28;20022;-73
2021/12/27 11:50:58;;;;;;;1.10;1.00;;;;;;;;;;4974277;28;20046;-74
2021/12/27 11:53:28;;;;;;;5.28;1.58;;;;;;;;;;4976335;28;20028;-73
2021/12/27 11:55:53;;;;;;;1.10;1.10;;;;;;;;;;4958727;28;20047;-73
2021/12/27 11:58:35;;;;;;;1.00;0.90;;;;;;;;;;4973466;28;20038;-73
2021/12/27 12:01:00;;;;;;;0.95;0.90;;;;;;;;;;4971289;28;20034;-74
2021/12/27 12:03:41;;;;;;;1.10;1.00;;;;;;;;;;4976242;28;20033;-73
2021/12/27 12:06:07;;;;;;;0.85;0.85;;;;;;;;;;4973056;28;20035;-73
2021/12/27 12:08:35;;;;;;;1.17;1.10;;;;;;;;;;4972904;28;20031;-73
2021/12/27 12:11:02;;;;;;;2.53;1.38;;;;;;;;;;4974737;28;20041;-73
2021/12/27 12:13:37;;;;;;;1.27;1.20;;;;;;;;;;4975601;28;20071;-74
2021/12/27 12:16:13;;;;;;;1.40;1.30;;;;;;;;;;4972623;28;20039;-74
2021/12/27 12:19:04;;;;;;;2.95;1.52;;;;;;;;;;4973939;28;20035;-73
2021/12/27 12:21:40;;;;;;;1.67;1.58;;;;;;;;;;4985430;28;20363;-74
2021/12/27 12:24:06;;;;;;;1.45;1.35;;;;;;;;;;4976380;28;20018;-73
2021/12/27 12:26:56;;;;;;;1.10;1.10;;;;;;;;;;4987501;28;20023;-73
2021/12/27 12:29:21;;;;;;;1.67;1.58;;;;;;;;;;4974854;28;20041;-73
2021/12/27 12:31:47;;;;;;;1.48;1.35;;;;;;;;;;4977394;28;20034;-74
2021/12/27 12:34:15;;;;;;;1.60;1.50;;;;;;;;;;4994346;28;20110;-73
2021/12/27 12:36:54;;;;;;;1.80;1.70;;;;;;;;;;4976893;28;20042;-74
2021/12/27 12:39:20;;;;;;;3.38;2.90;;;;;;;;;;4978950;28;20030;-73
2021/12/27 12:41:46;;;;;;;2.30;2.10;;;;;;;;;;4993355;28;20026;-73
2021/12/27 12:44:11;;;;;;;4.15;1.83;;;;;;;;;;4976085;28;20022;-74
2021/12/27 12:46:43;;;;;;;1.70;1.60;;;;;;;;;;4992588;28;20031;-73
2021/12/27 12:49:10;;;;;;;1.25;1.25;;;;;;;;;;4993639;28;20030;-73
2021/12/27 12:51:56;;;;;;;1.92;1.67;;;;;;;;;;4978693;28;20026;-73
2021/12/27 12:54:23;;;;;;;1.80;1.70;;;;;;;;;;4978728;28;20031;-73
2021/12/27 12:56:56;;;;;;;1.40;1.30;;;;;;;;;;4975701;28;20073;-73
2021/12/27 12:59:26;;;;;;;1.75;1.42;;;;;;;;;;4977683;28;20029;-74
2021/12/27 13:02:06;;;;;;;1.60;1.50;;;;;;;;;;4974193;28;20512;-73
2021/12/27 13:05:07;;;;;;;2.08;1.45;;;;;;;;;;4975032;28;20481;-73
2021/12/27 13:07:49;;;;;;;1.52;1.42;;;;;;;;;;4976029;28;20042;-73
2021/12/27 13:10:23;;;;;;;2.58;1.60;;;;;;;;;;4976774;28;20030;-73
2021/12/27 13:12:49;;;;;;;2.20;1.50;;;;;;;;;;4977839;28;20033;-74
2021/12/27 13:15:22;;;;;;;1.42;1.33;;;;;;;;;;4976537;28;20018;-74
2021/12/27 13:18:07;;;;;;;1.90;1.60;;;;;;;;;;4975643;28;20028;-73
2021/12/27 13:20:34;;;;;;;1.60;1.50;;;;;;;;;;4977056;28;20030;-73
2021/12/27 13:23:00;;;;;;;1.50;1.40;;;;;;;;;;4978547;28;20097;-73
2021/12/27 13:25:45;;;;;;;1.70;1.60;;;;;;;;;;4977969;28;20287;-73
2021/12/27 13:28:26;;;;;;;2.85;1.40;;;;;;;;;;4979331;28;20026;-74
2021/12/27 13:30:55;;;;;;;1.42;1.33;;;;;;;;;;4977762;28;20063;-74
2021/12/27 13:33:44;;;;;;;2.53;1.20;;;;;;;;;;4978167;28;20022;-73
2021/12/27 13:36:14;;;;;;;2.60;1.63;;;;;;;;;;4975476;28;21088;-73
2021/12/27 13:38:42;;;;;;;1.73;1.60;;;;;;;;;;4978637;28;20042;-74
2021/12/27 13:41:09;;;;;;;2.13;1.70;;;;;;;;;;4974327;28;20030;-74
2021/12/27 13:43:51;;;;;;;5.43;1.77;;;;;;;;;;4974360;28;20518;-74
2021/12/27 13:46:19;;;;;;;2.10;1.90;;;;;;;;;;4976207;28;20027;-73
2021/12/27 13:48:44;;;;;;;4.03;2.50;;;;;;;;;;4991041;28;20571;-73
2021/12/27 13:51:09;;;;;;;1.92;1.73;;;;;;;;;;4991636;28;20109;-74
2021/12/27 13:53:35;;;;;;;2.13;1.92;;;;;;;;;;4977042;28;20493;-73
2021/12/27 13:56:13;;;;;;;2.10;1.70;;;;;;;;;;4962657;28;20039;-73
2021/12/27 13:58:45;;;;;;;1.88;1.70;;;;;;;;;;4974715;28;20022;-73
2021/12/27 14:01:13;;;;;;;1.90;1.52;;;;;;;;;;4975941;28;20030;-73
2021/12/27 14:03:39;;;;;;;1.65;1.55;;;;;;;;;;4978188;28;20123;-73
2021/12/27 14:06:04;;;;;;;1.70;1.60;;;;;;;;;;4978600;28;20030;-73
2021/12/27 14:08:31;;;;;;;4.22;1.35;;;;;;;;;;4978455;28;20033;-74
2021/12/27 14:11:01;;;;;;;1.48;1.38;;;;;;;;;;4978184;28;20545;-74
2021/12/27 14:13:52;;;;;;;1.67;1.58;;;;;;;;;;4975258;28;20033;-74
2021/12/27 14:16:18;;;;;;;1.40;1.30;;;;;;;;;;4972024;28;20041;-74
2021/12/27 14:19:11;;;;;;;1.50;1.40;;;;;;;;;;4977042;28;20138;-73
2021/12/27 14:21:57;;;;;;;1.48;1.38;;;;;;;;;;4975981;28;20050;-74
2021/12/27 14:24:32;;;;;;;1.90;1.70;;;;;;;;;;4975323;28;20046;-73
2021/12/27 14:26:59;;;;;;;6.60;2.95;;;;;;;;;;4973484;28;20037;-74
2021/12/27 14:29:25;;;;;;;3.58;2.60;;;;;;;;;;4974393;28;20512;-73
2021/12/27 14:31:52;;;;;;;1.88;1.75;;;;;;;;;;4978534;28;20053;-74
2021/12/27 14:34:37;;;;;;;1.77;1.65;;;;;;;;;;4976606;28;20034;-73
2021/12/27 14:37:03;;;;;;;1.40;1.30;;;;;;;;;;4976928;28;20058;-73
2021/12/27 14:39:28;;;;;;;1.92;1.58;;;;;;;;;;4976234;28;20070;-73
2021/12/27 14:41:53;;;;;;;1.70;1.60;;;;;;;;;;4976741;28;20038;-73
2021/12/27 14:44:19;;;;;;;2.08;1.88;;;;;;;;;;4976932;28;20022;-73
2021/12/27 14:46:44;;;;;;;6.38;2.92;;;;;;;;;;4974855;28;20035;-73
2021/12/27 14:49:10;;;;;;;10.10;5.35;;;;;;;;;;4974281;28;20504;-73
2021/12/27 14:51:35;;;;;;;15.27;9.02;;;;;;;;;;4973722;28;20037;-73